sensor_id;sensor_type;location;lat;lon;timestamp;pressure;altitude;pressure_sealevel;temperature;humidity
73429;BME280;61643;49.564;17.412;2023-06-24T00:00:09;98429.38;;;18.57;88.29
73429;BME280;61643;49.564;17.412;2023-06-24T00:02:37;98419.56;;;18.56;88.52
73429;BME280;61643;49.564;17.412;2023-06-24T00:05:04;98424.72;;;18.57;88.32
73429;BME280;61643;49.564;17.412;2023-06-24T00:07:32;98437.88;;;18.55;88.95
73429;BME280;61643;49.564;17.412;2023-06-24T00:10:01;98428.34;;;18.53;88.57
73429;BME280;61643;49.564;17.412;2023-06-24T00:12:29;98437.06;;;18.55;88.75
73429;BME280;61643;49.564;17.412;2023-06-24T00:14:55;98432.22;;;18.52;89.18
73429;BME280;61643;49.564;17.412;2023-06-24T00:17:21;98439.63;;;18.46;90.10
73429;BME280;61643;49.564;17.412;2023-06-24T00:19:47;98429.34;;;18.43;90.15
73429;BME280;61643;49.564;17.412;2023-06-24T00:22:13;98432.97;;;18.25;91.30
73429;BME280;61643;49.564;17.412;2023-06-24T00:24:39;98430.03;;;18.22;92.01
73429;BME280;61643;49.564;17.412;2023-06-24T00:27:05;98439.84;;;18.23;92.14
73429;BME280;61643;49.564;17.412;2023-06-24T00:29:31;98439.69;;;18.14;92.64
73429;BME280;61643;49.564;17.412;2023-06-24T00:31:57;98430.13;;;18.16;92.40
73429;BME280;61643;49.564;17.412;2023-06-24T00:34:23;98429.00;;;18.17;92.80
73429;BME280;61643;49.564;17.412;2023-06-24T00:36:49;98424.38;;;18.18;92.80
73429;BME280;61643;49.564;17.412;2023-06-24T00:39:16;98421.44;;;18.14;93.19
73429;BME280;61643;49.564;17.412;2023-06-24T00:41:42;98426.47;;;18.07;93.64
73429;BME280;61643;49.564;17.412;2023-06-24T00:44:08;98421.53;;;18.09;94.14
73429;BME280;61643;49.564;17.412;2023-06-24T00:46:34;98413.97;;;18.06;94.38
73429;BME280;61643;49.564;17.412;2023-06-24T00:49:02;98425.06;;;18.10;94.53
73429;BME280;61643;49.564;17.412;2023-06-24T00:51:28;98422.94;;;18.07;94.95
73429;BME280;61643;49.564;17.412;2023-06-24T00:53:56;98432.00;;;18.02;95.76
73429;BME280;61643;49.564;17.412;2023-06-24T00:56:26;98425.84;;;17.97;95.73
73429;BME280;61643;49.564;17.412;2023-06-24T00:58:54;98430.06;;;17.89;97.10
73429;BME280;61643;49.564;17.412;2023-06-24T01:01:20;98437.50;;;17.84;97.15
73429;BME280;61643;49.564;17.412;2023-06-24T01:03:46;98436.00;;;17.91;96.70
73429;BME280;61643;49.564;17.412;2023-06-24T01:06:13;98429.25;;;17.89;97.09
73429;BME280;61643;49.564;17.412;2023-06-24T01:08:40;98434.91;;;17.92;96.90
73429;BME280;61643;49.564;17.412;2023-06-24T01:11:06;98439.88;;;17.90;96.75
73429;BME280;61643;49.564;17.412;2023-06-24T01:13:32;98440.66;;;17.91;96.87
73429;BME280;61643;49.564;17.412;2023-06-24T01:16:00;98446.84;;;17.96;96.71
73429;BME280;61643;49.564;17.412;2023-06-24T01:18:43;98441.97;;;17.80;97.56
73429;BME280;61643;49.564;17.412;2023-06-24T01:21:22;98432.97;;;17.79;97.42
73429;BME280;61643;49.564;17.412;2023-06-24T01:27:21;98442.66;;;17.85;97.92
73429;BME280;61643;49.564;17.412;2023-06-24T01:32:29;98442.59;;;17.90;97.51
73429;BME280;61643;49.564;17.412;2023-06-24T01:35:07;98430.25;;;17.79;98.29
73429;BME280;61643;49.564;17.412;2023-06-24T01:37:38;98434.66;;;17.75;98.64
73429;BME280;61643;49.564;17.412;2023-06-24T01:42:43;98440.63;;;17.77;98.88
73429;BME280;61643;49.564;17.412;2023-06-24T01:45:14;98443.88;;;17.79;98.75
73429;BME280;61643;49.564;17.412;2023-06-24T01:47:43;98435.16;;;17.77;99.00
73429;BME280;61643;49.564;17.412;2023-06-24T01:50:11;98433.47;;;17.81;98.92
73429;BME280;61643;49.564;17.412;2023-06-24T01:52:38;98437.72;;;17.87;98.46
73429;BME280;61643;49.564;17.412;2023-06-24T01:55:07;98425.81;;;17.83;98.73
73429;BME280;61643;49.564;17.412;2023-06-24T01:57:36;98429.94;;;17.81;99.39
73429;BME280;61643;49.564;17.412;2023-06-24T02:00:02;98424.59;;;17.76;99.26
73429;BME280;61643;49.564;17.412;2023-06-24T02:02:32;98420.31;;;17.69;99.53
73429;BME280;61643;49.564;17.412;2023-06-24T02:05:00;98417.00;;;17.73;99.34
73429;BME280;61643;49.564;17.412;2023-06-24T02:07:28;98419.44;;;17.74;99.12
73429;BME280;61643;49.564;17.412;2023-06-24T02:09:56;98410.84;;;17.67;99.68
73429;BME280;61643;49.564;17.412;2023-06-24T02:12:24;98410.25;;;17.70;99.72
73429;BME280;61643;49.564;17.412;2023-06-24T02:14:52;98414.75;;;17.61;100.00
73429;BME280;61643;49.564;17.412;2023-06-24T02:17:20;98416.28;;;17.67;99.69
73429;BME280;61643;49.564;17.412;2023-06-24T02:19:48;98418.09;;;17.58;100.00
73429;BME280;61643;49.564;17.412;2023-06-24T02:22:14;98425.94;;;17.59;100.00
73429;BME280;61643;49.564;17.412;2023-06-24T02:24:41;98432.03;;;17.70;99.78
73429;BME280;61643;49.564;17.412;2023-06-24T02:27:08;98433.44;;;17.67;100.00
73429;BME280;61643;49.564;17.412;2023-06-24T02:29:36;98429.41;;;17.65;100.00
73429;BME280;61643;49.564;17.412;2023-06-24T02:32:03;98437.78;;;17.68;100.00
73429;BME280;61643;49.564;17.412;2023-06-24T02:34:29;98437.69;;;17.74;99.93
73429;BME280;61643;49.564;17.412;2023-06-24T02:36:55;98438.00;;;17.72;99.86
73429;BME280;61643;49.564;17.412;2023-06-24T02:39:21;98438.56;;;17.69;100.00
73429;BME280;61643;49.564;17.412;2023-06-24T02:41:48;98440.28;;;17.65;100.00
73429;BME280;61643;49.564;17.412;2023-06-24T02:44:15;98438.59;;;17.50;100.00
73429;BME280;61643;49.564;17.412;2023-06-24T02:46:45;98441.75;;;17.57;100.00
73429;BME280;61643;49.564;17.412;2023-06-24T02:49:13;98439.38;;;17.51;100.00
73429;BME280;61643;49.564;17.412;2023-06-24T02:51:41;98426.94;;;17.45;100.00
73429;BME280;61643;49.564;17.412;2023-06-24T02:54:07;98433.34;;;17.54;100.00
73429;BME280;61643;49.564;17.412;2023-06-24T02:56:34;98428.47;;;17.51;100.00
73429;BME280;61643;49.564;17.412;2023-06-24T02:59:01;98422.47;;;17.54;100.00
73429;BME280;61643;49.564;17.412;2023-06-24T03:01:27;98429.50;;;17.55;100.00
73429;BME280;61643;49.564;17.412;2023-06-24T03:03:54;98425.19;;;17.54;100.00
73429;BME280;61643;49.564;17.412;2023-06-24T03:06:21;98429.50;;;17.55;100.00
73429;BME280;61643;49.564;17.412;2023-06-24T03:08:48;98430.69;;;17.49;100.00
73429;BME280;61643;49.564;17.412;2023-06-24T03:11:15;98432.78;;;17.38;100.00
73429;BME280;61643;49.564;17.412;2023-06-24T03:13:43;98430.28;;;17.42;100.00
73429;BME280;61643;49.564;17.412;2023-06-24T03:16:09;98440.50;;;17.50;100.00
73429;BME280;61643;49.564;17.412;2023-06-24T03:18:41;98428.56;;;17.46;100.00
73429;BME280;61643;49.564;17.412;2023-06-24T03:21:08;98428.03;;;17.44;100.00
73429;BME280;61643;49.564;17.412;2023-06-24T03:23:35;98425.69;;;17.37;100.00
73429;BME280;61643;49.564;17.412;2023-06-24T03:26:01;98424.69;;;17.33;100.00
73429;BME280;61643;49.564;17.412;2023-06-24T03:28:31;98426.91;;;17.31;100.00
73429;BME280;61643;49.564;17.412;2023-06-24T03:30:58;98434.19;;;17.36;100.00
73429;BME280;61643;49.564;17.412;2023-06-24T03:33:24;98439.75;;;17.26;100.00
73429;BME280;61643;49.564;17.412;2023-06-24T03:35:50;98441.53;;;17.35;100.00
73429;BME280;61643;49.564;17.412;2023-06-24T03:38:16;98437.72;;;17.36;100.00
73429;BME280;61643;49.564;17.412;2023-06-24T03:40:42;98432.63;;;17.30;100.00
73429;BME280;61643;49.564;17.412;2023-06-24T03:43:10;98422.56;;;17.30;100.00
73429;BME280;61643;49.564;17.412;2023-06-24T03:45:36;98424.78;;;17.28;100.00
73429;BME280;61643;49.564;17.412;2023-06-24T03:48:01;98444.31;;;17.30;100.00
73429;BME280;61643;49.564;17.412;2023-06-24T03:50:27;98448.88;;;17.35;100.00
73429;BME280;61643;49.564;17.412;2023-06-24T03:52:53;98444.91;;;17.27;100.00
73429;BME280;61643;49.564;17.412;2023-06-24T03:55:19;98446.00;;;17.26;100.00
73429;BME280;61643;49.564;17.412;2023-06-24T03:57:45;98447.84;;;17.31;100.00
73429;BME280;61643;49.564;17.412;2023-06-24T04:00:12;98443.59;;;17.25;100.00
73429;BME280;61643;49.564;17.412;2023-06-24T04:02:46;98440.88;;;17.25;100.00
73429;BME280;61643;49.564;17.412;2023-06-24T04:05:12;98461.28;;;17.41;100.00
73429;BME280;61643;49.564;17.412;2023-06-24T04:07:38;98453.13;;;17.41;100.00
73429;BME280;61643;49.564;17.412;2023-06-24T04:10:06;98460.56;;;17.54;100.00
73429;BME280;61643;49.564;17.412;2023-06-24T04:12:35;98466.38;;;17.66;100.00
73429;BME280;61643;49.564;17.412;2023-06-24T04:15:02;98477.72;;;17.54;100.00
73429;BME280;61643;49.564;17.412;2023-06-24T04:17:29;98478.19;;;17.61;100.00
73429;BME280;61643;49.564;17.412;2023-06-24T04:19:55;98480.09;;;17.61;100.00
73429;BME280;61643;49.564;17.412;2023-06-24T04:22:21;98482.66;;;17.71;100.00
73429;BME280;61643;49.564;17.412;2023-06-24T04:24:48;98490.66;;;17.62;100.00
73429;BME280;61643;49.564;17.412;2023-06-24T04:27:14;98493.59;;;17.66;100.00
73429;BME280;61643;49.564;17.412;2023-06-24T04:29:40;98498.22;;;17.65;100.00
73429;BME280;61643;49.564;17.412;2023-06-24T04:32:06;98498.94;;;17.57;100.00
73429;BME280;61643;49.564;17.412;2023-06-24T04:34:32;98492.88;;;17.60;100.00
73429;BME280;61643;49.564;17.412;2023-06-24T04:36:58;98504.50;;;17.66;100.00
73429;BME280;61643;49.564;17.412;2023-06-24T04:39:24;98509.06;;;17.70;100.00
73429;BME280;61643;49.564;17.412;2023-06-24T04:41:50;98515.53;;;17.75;100.00
73429;BME280;61643;49.564;17.412;2023-06-24T04:44:16;98520.97;;;17.75;100.00
73429;BME280;61643;49.564;17.412;2023-06-24T04:46:42;98519.88;;;17.76;100.00
73429;BME280;61643;49.564;17.412;2023-06-24T04:49:08;98526.25;;;17.85;100.00
73429;BME280;61643;49.564;17.412;2023-06-24T04:51:34;98523.53;;;17.85;100.00
73429;BME280;61643;49.564;17.412;2023-06-24T04:54:01;98529.44;;;17.73;100.00
73429;BME280;61643;49.564;17.412;2023-06-24T04:56:27;98517.72;;;17.73;100.00
73429;BME280;61643;49.564;17.412;2023-06-24T04:58:54;98535.03;;;17.63;100.00
73429;BME280;61643;49.564;17.412;2023-06-24T05:01:20;98528.06;;;17.76;100.00
73429;BME280;61643;49.564;17.412;2023-06-24T05:03:47;98523.09;;;17.78;100.00
73429;BME280;61643;49.564;17.412;2023-06-24T05:06:13;98525.06;;;17.91;100.00
73429;BME280;61643;49.564;17.412;2023-06-24T05:08:39;98532.88;;;17.97;100.00
73429;BME280;61643;49.564;17.412;2023-06-24T05:11:05;98535.00;;;18.00;100.00
73429;BME280;61643;49.564;17.412;2023-06-24T05:13:31;98535.00;;;18.00;100.00
73429;BME280;61643;49.564;17.412;2023-06-24T05:15:57;98532.34;;;17.95;100.00
73429;BME280;61643;49.564;17.412;2023-06-24T05:18:23;98540.97;;;18.02;100.00
73429;BME280;61643;49.564;17.412;2023-06-24T05:20:49;98542.44;;;17.95;100.00
73429;BME280;61643;49.564;17.412;2023-06-24T05:23:15;98545.81;;;18.05;100.00
73429;BME280;61643;49.564;17.412;2023-06-24T05:25:41;98540.78;;;18.12;100.00
73429;BME280;61643;49.564;17.412;2023-06-24T05:28:07;98556.19;;;18.22;100.00
73429;BME280;61643;49.564;17.412;2023-06-24T05:30:33;98550.34;;;18.29;100.00
73429;BME280;61643;49.564;17.412;2023-06-24T05:32:59;98545.38;;;18.31;100.00
73429;BME280;61643;49.564;17.412;2023-06-24T05:35:25;98548.03;;;18.36;100.00
73429;BME280;61643;49.564;17.412;2023-06-24T05:37:51;98548.44;;;18.43;100.00
73429;BME280;61643;49.564;17.412;2023-06-24T05:40:17;98546.16;;;18.50;100.00
73429;BME280;61643;49.564;17.412;2023-06-24T05:42:43;98549.13;;;18.53;100.00
73429;BME280;61643;49.564;17.412;2023-06-24T05:45:09;98550.53;;;18.64;99.99
73429;BME280;61643;49.564;17.412;2023-06-24T05:47:36;98554.22;;;18.87;98.26
73429;BME280;61643;49.564;17.412;2023-06-24T05:50:02;98557.06;;;19.09;97.11
73429;BME280;61643;49.564;17.412;2023-06-24T05:52:28;98554.31;;;19.23;95.15
73429;BME280;61643;49.564;17.412;2023-06-24T05:54:54;98555.59;;;19.39;94.96
73429;BME280;61643;49.564;17.412;2023-06-24T05:57:20;98564.53;;;19.45;95.66
73429;BME280;61643;49.564;17.412;2023-06-24T05:59:46;98564.50;;;19.17;95.62
73429;BME280;61643;49.564;17.412;2023-06-24T06:02:12;98560.19;;;19.16;96.39
73429;BME280;61643;49.564;17.412;2023-06-24T06:04:39;98567.03;;;19.00;97.08
73429;BME280;61643;49.564;17.412;2023-06-24T06:07:05;98573.72;;;18.94;98.15
73429;BME280;61643;49.564;17.412;2023-06-24T06:09:31;98587.34;;;18.94;97.84
73429;BME280;61643;49.564;17.412;2023-06-24T06:11:57;98585.81;;;18.75;99.04
73429;BME280;61643;49.564;17.412;2023-06-24T06:14:22;98580.81;;;18.63;100.00
73429;BME280;61643;49.564;17.412;2023-06-24T06:16:48;98578.84;;;18.50;100.00
73429;BME280;61643;49.564;17.412;2023-06-24T06:19:15;98587.34;;;18.48;100.00
73429;BME280;61643;49.564;17.412;2023-06-24T06:21:40;98589.53;;;18.46;100.00
73429;BME280;61643;49.564;17.412;2023-06-24T06:24:07;98592.88;;;18.43;100.00
73429;BME280;61643;49.564;17.412;2023-06-24T06:26:33;98604.97;;;18.37;100.00
73429;BME280;61643;49.564;17.412;2023-06-24T06:28:58;98603.34;;;18.36;100.00
73429;BME280;61643;49.564;17.412;2023-06-24T06:31:24;98608.28;;;18.34;100.00
73429;BME280;61643;49.564;17.412;2023-06-24T06:33:51;98613.09;;;18.24;100.00
73429;BME280;61643;49.564;17.412;2023-06-24T06:36:17;98613.47;;;18.17;100.00
73429;BME280;61643;49.564;17.412;2023-06-24T06:38:43;98609.31;;;18.19;100.00
73429;BME280;61643;49.564;17.412;2023-06-24T06:41:09;98609.06;;;18.02;100.00
73429;BME280;61643;49.564;17.412;2023-06-24T06:43:35;98611.72;;;18.07;100.00
73429;BME280;61643;49.564;17.412;2023-06-24T06:46:01;98611.66;;;17.94;100.00
73429;BME280;61643;49.564;17.412;2023-06-24T06:48:27;98609.72;;;17.94;98.20
73429;BME280;61643;49.564;17.412;2023-06-24T06:50:53;98612.44;;;17.94;99.60
73429;BME280;61643;49.564;17.412;2023-06-24T06:53:19;98612.16;;;17.96;98.81
73429;BME280;61643;49.564;17.412;2023-06-24T06:55:45;98612.53;;;17.89;99.51
73429;BME280;61643;49.564;17.412;2023-06-24T06:58:11;98623.09;;;17.91;99.83
73429;BME280;61643;49.564;17.412;2023-06-24T07:00:37;98605.00;;;17.81;100.00
73429;BME280;61643;49.564;17.412;2023-06-24T07:03:03;98607.81;;;17.95;99.10
73429;BME280;61643;49.564;17.412;2023-06-24T07:05:29;98614.50;;;18.02;99.44
73429;BME280;61643;49.564;17.412;2023-06-24T07:07:55;98607.50;;;17.78;98.97
73429;BME280;61643;49.564;17.412;2023-06-24T07:10:21;98615.63;;;18.01;99.15
73429;BME280;61643;49.564;17.412;2023-06-24T07:12:47;98620.97;;;18.06;98.80
73429;BME280;61643;49.564;17.412;2023-06-24T07:15:13;98622.88;;;18.06;100.00
73429;BME280;61643;49.564;17.412;2023-06-24T07:17:39;98631.06;;;18.06;99.58
73429;BME280;61643;49.564;17.412;2023-06-24T07:20:06;98626.66;;;18.10;100.00
73429;BME280;61643;49.564;17.412;2023-06-24T07:22:32;98628.06;;;18.07;99.29
73429;BME280;61643;49.564;17.412;2023-06-24T07:24:58;98637.25;;;18.11;100.00
73429;BME280;61643;49.564;17.412;2023-06-24T07:27:24;98639.38;;;18.14;99.24
73429;BME280;61643;49.564;17.412;2023-06-24T07:29:50;98642.41;;;18.13;97.38
73429;BME280;61643;49.564;17.412;2023-06-24T07:32:16;98648.66;;;18.13;97.17
73429;BME280;61643;49.564;17.412;2023-06-24T07:34:42;98653.97;;;18.05;96.54
73429;BME280;61643;49.564;17.412;2023-06-24T07:37:07;98653.81;;;17.96;93.67
73429;BME280;61643;49.564;17.412;2023-06-24T07:39:33;98649.31;;;18.05;96.08
73429;BME280;61643;49.564;17.412;2023-06-24T07:41:59;98658.53;;;18.09;92.88
73429;BME280;61643;49.564;17.412;2023-06-24T07:44:25;98663.16;;;18.09;92.92
73429;BME280;61643;49.564;17.412;2023-06-24T07:46:51;98662.72;;;18.02;91.67
73429;BME280;61643;49.564;17.412;2023-06-24T07:49:18;98663.03;;;18.00;91.38
73429;BME280;61643;49.564;17.412;2023-06-24T07:51:44;98655.81;;;18.09;93.46
73429;BME280;61643;49.564;17.412;2023-06-24T07:54:12;98658.47;;;18.14;92.48
73429;BME280;61643;49.564;17.412;2023-06-24T07:56:38;98666.84;;;18.18;91.05
73429;BME280;61643;49.564;17.412;2023-06-24T07:59:03;98674.88;;;18.09;90.63
73429;BME280;61643;49.564;17.412;2023-06-24T08:01:29;98674.28;;;18.12;89.74
73429;BME280;61643;49.564;17.412;2023-06-24T08:03:55;98666.91;;;18.13;90.75
73429;BME280;61643;49.564;17.412;2023-06-24T08:06:21;98673.94;;;18.19;89.63
73429;BME280;61643;49.564;17.412;2023-06-24T08:08:47;98676.88;;;18.23;89.10
73429;BME280;61643;49.564;17.412;2023-06-24T08:11:13;98675.25;;;18.22;90.36
73429;BME280;61643;49.564;17.412;2023-06-24T08:13:39;98681.19;;;18.24;87.43
73429;BME280;61643;49.564;17.412;2023-06-24T08:16:05;98682.22;;;18.28;87.02
73429;BME280;61643;49.564;17.412;2023-06-24T08:18:31;98685.78;;;18.28;86.81
73429;BME280;61643;49.564;17.412;2023-06-24T08:20:59;98683.84;;;18.29;87.06
73429;BME280;61643;49.564;17.412;2023-06-24T08:23:25;98684.97;;;18.28;85.16
73429;BME280;61643;49.564;17.412;2023-06-24T08:25:50;98693.13;;;18.28;86.29
73429;BME280;61643;49.564;17.412;2023-06-24T08:28:16;98691.00;;;18.25;86.34
73429;BME280;61643;49.564;17.412;2023-06-24T08:30:42;98704.63;;;18.25;85.74
73429;BME280;61643;49.564;17.412;2023-06-24T08:33:08;98708.88;;;18.31;86.02
73429;BME280;61643;49.564;17.412;2023-06-24T08:35:34;98707.28;;;18.30;87.35
73429;BME280;61643;49.564;17.412;2023-06-24T08:38:00;98710.50;;;18.32;85.31
73429;BME280;61643;49.564;17.412;2023-06-24T08:40:27;98721.19;;;18.28;85.42
73429;BME280;61643;49.564;17.412;2023-06-24T08:42:54;98715.75;;;18.28;84.89
73429;BME280;61643;49.564;17.412;2023-06-24T08:45:20;98721.56;;;18.22;84.53
73429;BME280;61643;49.564;17.412;2023-06-24T08:47:47;98722.88;;;18.24;84.88
73429;BME280;61643;49.564;17.412;2023-06-24T08:50:16;98722.59;;;18.26;85.27
73429;BME280;61643;49.564;17.412;2023-06-24T08:52:49;98721.41;;;18.32;86.99
73429;BME280;61643;49.564;17.412;2023-06-24T08:55:17;98728.28;;;18.29;85.85
73429;BME280;61643;49.564;17.412;2023-06-24T08:57:43;98725.56;;;18.29;85.51
73429;BME280;61643;49.564;17.412;2023-06-24T09:00:09;98737.19;;;18.35;87.81
73429;BME280;61643;49.564;17.412;2023-06-24T09:02:38;98729.75;;;18.40;89.61
73429;BME280;61643;49.564;17.412;2023-06-24T09:05:05;98732.69;;;18.44;89.41
73429;BME280;61643;49.564;17.412;2023-06-24T09:07:31;98730.91;;;18.34;85.74
73429;BME280;61643;49.564;17.412;2023-06-24T09:09:57;98724.16;;;18.50;86.07
73429;BME280;61643;49.564;17.412;2023-06-24T09:12:24;98727.41;;;18.52;85.81
73429;BME280;61643;49.564;17.412;2023-06-24T09:14:51;98741.19;;;18.61;85.37
73429;BME280;61643;49.564;17.412;2023-06-24T09:17:18;98724.66;;;18.71;86.21
73429;BME280;61643;49.564;17.412;2023-06-24T09:19:48;98730.28;;;18.61;85.54
73429;BME280;61643;49.564;17.412;2023-06-24T09:22:15;98735.66;;;18.66;84.77
73429;BME280;61643;49.564;17.412;2023-06-24T09:24:45;98735.50;;;18.57;85.10
73429;BME280;61643;49.564;17.412;2023-06-24T09:27:17;98734.53;;;18.67;85.69
73429;BME280;61643;49.564;17.412;2023-06-24T09:29:47;98730.72;;;18.68;84.98
73429;BME280;61643;49.564;17.412;2023-06-24T09:32:14;98743.53;;;18.67;84.19
73429;BME280;61643;49.564;17.412;2023-06-24T09:34:40;98743.31;;;18.64;83.84
73429;BME280;61643;49.564;17.412;2023-06-24T09:37:06;98740.53;;;18.69;87.06
73429;BME280;61643;49.564;17.412;2023-06-24T09:39:36;98750.56;;;18.74;85.84
73429;BME280;61643;49.564;17.412;2023-06-24T09:42:04;98743.31;;;18.64;87.36
73429;BME280;61643;49.564;17.412;2023-06-24T09:44:31;98750.34;;;18.70;88.77
73429;BME280;61643;49.564;17.412;2023-06-24T09:46:57;98743.84;;;18.66;85.70
73429;BME280;61643;49.564;17.412;2023-06-24T09:49:24;98740.00;;;18.67;87.96
73429;BME280;61643;49.564;17.412;2023-06-24T09:51:56;98741.34;;;18.70;85.74
73429;BME280;61643;49.564;17.412;2023-06-24T09:54:25;98741.47;;;18.78;87.60
73429;BME280;61643;49.564;17.412;2023-06-24T09:56:53;98744.13;;;18.83;86.33
73429;BME280;61643;49.564;17.412;2023-06-24T09:59:20;98738.63;;;18.70;84.17
73429;BME280;61643;49.564;17.412;2023-06-24T10:01:53;98743.91;;;18.80;85.29
73429;BME280;61643;49.564;17.412;2023-06-24T10:04:20;98752.78;;;18.85;86.67
73429;BME280;61643;49.564;17.412;2023-06-24T10:06:49;98757.31;;;18.95;86.55
73429;BME280;61643;49.564;17.412;2023-06-24T10:09:16;98752.44;;;18.92;88.66
73429;BME280;61643;49.564;17.412;2023-06-24T10:11:47;98755.47;;;18.90;86.11
73429;BME280;61643;49.564;17.412;2023-06-24T10:14:17;98755.09;;;18.78;83.70
73429;BME280;61643;49.564;17.412;2023-06-24T10:16:44;98748.81;;;18.78;84.80
73429;BME280;61643;49.564;17.412;2023-06-24T10:19:10;98747.34;;;18.85;84.94
73429;BME280;61643;49.564;17.412;2023-06-24T10:21:53;98749.47;;;18.88;85.55
73429;BME280;61643;49.564;17.412;2023-06-24T10:24:29;98742.75;;;18.99;85.77
73429;BME280;61643;49.564;17.412;2023-06-24T10:27:03;98740.75;;;19.05;86.67
73429;BME280;61643;49.564;17.412;2023-06-24T10:29:33;98753.19;;;19.11;86.42
73429;BME280;61643;49.564;17.412;2023-06-24T10:32:06;98750.88;;;19.18;85.49
73429;BME280;61643;49.564;17.412;2023-06-24T10:34:42;98747.06;;;19.33;86.27
73429;BME280;61643;49.564;17.412;2023-06-24T10:37:19;98746.38;;;19.27;82.48
73429;BME280;61643;49.564;17.412;2023-06-24T10:39:58;98754.44;;;19.32;83.09
73429;BME280;61643;49.564;17.412;2023-06-24T10:42:44;98735.47;;;19.27;81.05
73429;BME280;61643;49.564;17.412;2023-06-24T10:45:13;98742.34;;;19.38;81.29
73429;BME280;61643;49.564;17.412;2023-06-24T10:47:41;98739.94;;;19.50;81.14
73429;BME280;61643;49.564;17.412;2023-06-24T10:50:09;98739.16;;;19.63;80.88
73429;BME280;61643;49.564;17.412;2023-06-24T10:52:39;98736.63;;;19.81;81.39
73429;BME280;61643;49.564;17.412;2023-06-24T10:55:06;98732.88;;;19.90;79.66
73429;BME280;61643;49.564;17.412;2023-06-24T10:57:33;98737.34;;;20.00;82.22
73429;BME280;61643;49.564;17.412;2023-06-24T11:00:00;98744.00;;;19.94;80.11
73429;BME280;61643;49.564;17.412;2023-06-24T11:02:27;98745.53;;;20.00;80.11
73429;BME280;61643;49.564;17.412;2023-06-24T11:04:58;98747.13;;;20.01;80.53
73429;BME280;61643;49.564;17.412;2023-06-24T11:07:30;98753.41;;;20.01;79.68
73429;BME280;61643;49.564;17.412;2023-06-24T11:09:58;98743.69;;;20.09;80.16
73429;BME280;61643;49.564;17.412;2023-06-24T11:12:26;98734.38;;;20.10;80.30
73429;BME280;61643;49.564;17.412;2023-06-24T11:14:58;98742.19;;;20.03;78.53
73429;BME280;61643;49.564;17.412;2023-06-24T11:17:25;98744.13;;;20.02;78.39
73429;BME280;61643;49.564;17.412;2023-06-24T11:19:55;98742.38;;;20.20;79.37
73429;BME280;61643;49.564;17.412;2023-06-24T11:22:23;98739.84;;;20.24;80.58
73429;BME280;61643;49.564;17.412;2023-06-24T11:24:49;98738.22;;;20.36;80.14
73429;BME280;61643;49.564;17.412;2023-06-24T11:27:15;98734.16;;;20.34;79.00
73429;BME280;61643;49.564;17.412;2023-06-24T11:29:41;98741.88;;;20.32;80.11
73429;BME280;61643;49.564;17.412;2023-06-24T11:32:08;98742.28;;;20.25;80.77
73429;BME280;61643;49.564;17.412;2023-06-24T11:34:35;98741.06;;;20.18;79.94
73429;BME280;61643;49.564;17.412;2023-06-24T11:37:13;98737.13;;;20.10;79.71
73429;BME280;61643;49.564;17.412;2023-06-24T11:39:39;98729.63;;;20.02;80.19
73429;BME280;61643;49.564;17.412;2023-06-24T11:42:08;98724.47;;;20.00;82.17
73429;BME280;61643;49.564;17.412;2023-06-24T11:44:35;98733.28;;;20.11;82.26
73429;BME280;61643;49.564;17.412;2023-06-24T11:47:09;98733.56;;;20.09;81.86
73429;BME280;61643;49.564;17.412;2023-06-24T11:50:08;98741.88;;;20.04;81.89
73429;BME280;61643;49.564;17.412;2023-06-24T11:55:04;98733.88;;;20.08;84.23
73429;BME280;61643;49.564;17.412;2023-06-24T11:57:53;98737.94;;;20.10;84.01
73429;BME280;61643;49.564;17.412;2023-06-24T12:00:26;98740.28;;;20.03;83.78
73429;BME280;61643;49.564;17.412;2023-06-24T12:02:57;98743.59;;;20.14;85.07
73429;BME280;61643;49.564;17.412;2023-06-24T12:05:25;98740.88;;;20.14;84.05
73429;BME280;61643;49.564;17.412;2023-06-24T12:07:55;98742.84;;;20.22;83.85
73429;BME280;61643;49.564;17.412;2023-06-24T12:10:22;98740.53;;;20.15;82.84
73429;BME280;61643;49.564;17.412;2023-06-24T12:12:48;98736.22;;;20.14;83.06
73429;BME280;61643;49.564;17.412;2023-06-24T12:15:14;98736.81;;;20.11;83.75
73429;BME280;61643;49.564;17.412;2023-06-24T12:17:40;98738.13;;;20.00;83.96
73429;BME280;61643;49.564;17.412;2023-06-24T12:20:06;98741.47;;;19.97;84.49
73429;BME280;61643;49.564;17.412;2023-06-24T12:22:33;98740.59;;;19.75;84.75
73429;BME280;61643;49.564;17.412;2023-06-24T12:24:59;98736.63;;;19.53;86.67
73429;BME280;61643;49.564;17.412;2023-06-24T12:27:25;98735.31;;;19.51;86.83
73429;BME280;61643;49.564;17.412;2023-06-24T12:29:51;98739.41;;;19.35;87.60
73429;BME280;61643;49.564;17.412;2023-06-24T12:32:17;98743.53;;;19.32;88.32
73429;BME280;61643;49.564;17.412;2023-06-24T12:34:43;98750.34;;;19.35;88.33
73429;BME280;61643;49.564;17.412;2023-06-24T12:37:09;98752.25;;;19.34;88.23
73429;BME280;61643;49.564;17.412;2023-06-24T12:39:35;98737.50;;;19.35;87.49
73429;BME280;61643;49.564;17.412;2023-06-24T12:42:01;98744.19;;;19.43;88.52
73429;BME280;61643;49.564;17.412;2023-06-24T12:44:27;98740.75;;;19.51;87.26
73429;BME280;61643;49.564;17.412;2023-06-24T12:46:53;98741.50;;;19.56;87.18
73429;BME280;61643;49.564;17.412;2023-06-24T12:49:19;98743.22;;;19.52;85.36
73429;BME280;61643;49.564;17.412;2023-06-24T12:51:44;98741.19;;;19.58;85.77
73429;BME280;61643;49.564;17.412;2023-06-24T12:54:11;98745.72;;;19.49;85.59
73429;BME280;61643;49.564;17.412;2023-06-24T12:56:37;98742.88;;;19.54;86.17
73429;BME280;61643;49.564;17.412;2023-06-24T12:59:03;98749.38;;;19.58;85.41